Time;durP1;ratioP1;P1;durP2;ratioP2;P2;SDS_P1;SDS_P2;PMS_P1;PMS_P2;Temp;Humidity;BMP_temperature;BMP_pressure;BME280_temperature;BME280_humidity;BME280_pressure;Samples;Min_cycle;Max_cycle;Signal;HPM_P1;HPM_P2
2022/05/03 00:00:07;;;;;;;0.10;0.10;;;;;;;20.99;39.64;101388.59;5100688;28;20146;-27
2022/05/03 00:02:41;;;;;;;0.10;0.10;;;;;;;20.99;39.69;101391.38;5125374;27;20089;-26
2022/05/03 00:05:12;;;;;;;0.10;0.10;;;;;;;20.99;39.57;101383.06;5120907;28;20084;-27
2022/05/03 00:08:17;;;;;;;0.10;0.10;;;;;;;20.99;39.68;101382.22;5120583;28;20565;-30
2022/05/03 00:11:09;;;;;;;0.20;0.20;;;;;;;20.99;39.80;101383.06;5105805;28;20439;-27
2022/05/03 00:13:43;;;;;;;0.10;0.10;;;;;;;20.99;39.67;101380.28;5110892;28;20092;-31
2022/05/03 00:16:10;;;;;;;0.10;0.10;;;;;;;20.99;39.91;101385.00;5104877;28;20110;-27
2022/05/03 00:18:36;;;;;;;0.10;0.10;;;;;;;20.98;39.88;101378.63;5122217;28;20039;-29
2022/05/03 00:21:02;;;;;;;0.10;0.10;;;;;;;20.99;39.78;101382.22;5123633;28;20051;-28
2022/05/03 00:23:28;;;;;;;0.10;0.10;;;;;;;20.98;39.77;101377.78;5126056;28;20078;-27
2022/05/03 00:25:54;;;;;;;0.20;0.20;;;;;;;20.99;39.74;101371.16;5122218;28;20430;-30
2022/05/03 00:28:19;;;;;;;0.20;0.20;;;;;;;20.99;39.74;101371.16;5125330;28;20480;-28
2022/05/03 00:30:46;;;;;;;0.10;0.10;;;;;;;20.98;39.57;101362.03;5125224;28;20386;-27
2022/05/03 00:33:13;;;;;;;0.15;0.15;;;;;;;20.99;39.86;101360.91;5122884;27;20462;-27
2022/05/03 00:35:39;;;;;;;0.10;0.10;;;;;;;20.98;39.70;101359.25;5102792;28;20047;-27
2022/05/03 00:38:04;;;;;;;0.10;0.10;;;;;;;20.98;39.48;101355.63;5122670;28;20367;-28
2022/05/03 00:40:32;;;;;;;0.10;0.10;;;;;;;20.97;39.66;101352.03;5122376;27;20043;-28
2022/05/03 00:43:21;;;;;;;0.10;0.10;;;;;;;20.98;39.91;101355.63;5106254;28;20126;-28
2022/05/03 00:45:53;;;;;;;0.10;0.10;;;;;;;20.96;39.99;101355.94;5104487;28;20467;-27
2022/05/03 00:48:43;;;;;;;0.10;0.10;;;;;;;20.96;39.74;101355.94;5119028;28;20035;-28
2022/05/03 00:51:18;;;;;;;0.10;0.10;;;;;;;20.97;39.98;101356.75;5108071;28;20506;-30
2022/05/03 00:54:23;;;;;;;0.10;0.10;;;;;;;20.96;39.87;101353.16;5103679;28;20281;-28
2022/05/03 00:57:18;;;;;;;0.10;0.10;;;;;;;20.97;39.67;101365.06;5106002;28;20070;-27
2022/05/03 01:00:08;;;;;;;0.10;0.10;;;;;;;20.96;39.67;101360.63;5112232;28;20134;-27
2022/05/03 01:03:02;;;;;;;0.10;0.10;;;;;;;20.96;39.91;101366.19;5111232;28;20130;-28
2022/05/03 01:06:00;;;;;;;0.10;0.10;;;;;;;20.97;39.90;101362.28;5111403;28;20049;-27
2022/05/03 01:08:37;;;;;;;0.10;0.10;;;;;;;20.95;39.77;101359.81;5108153;28;20079;-27
2022/05/03 01:11:30;;;;;;;0.10;0.10;;;;;;;20.96;39.74;101367.00;5122594;28;20081;-27
2022/05/03 01:14:05;;;;;;;0.10;0.10;;;;;;;20.96;39.86;101357.88;5109557;28;20071;-27
2022/05/03 01:16:35;;;;;;;0.10;0.10;;;;;;;20.95;39.93;101357.03;5121444;28;20078;-29
2022/05/03 01:19:21;;;;;;;0.20;0.20;;;;;;;20.96;39.83;101358.69;5124927;28;20789;-29
2022/05/03 01:21:59;;;;;;;0.10;0.10;;;;;;;20.95;39.74;101354.28;5120907;28;20078;-27
2022/05/03 01:24:51;;;;;;;0.10;0.10;;;;;;;20.95;40.06;101357.03;5123036;28;20135;-27
2022/05/03 01:27:37;;;;;;;0.10;0.10;;;;;;;20.95;39.92;101351.50;5107897;28;20082;-27
2022/05/03 01:30:03;;;;;;;0.10;0.10;;;;;;;20.96;39.97;101355.09;5121843;28;20043;-30
2022/05/03 01:32:31;;;;;;;0.10;0.10;;;;;;;20.96;39.84;101355.09;5122841;28;20379;-27
2022/05/03 01:34:57;;;;;;;0.10;0.10;;;;;;;20.96;39.71;101360.63;5121701;28;20089;-27
2022/05/03 01:37:51;;;;;;;0.10;0.10;;;;;;;20.95;39.80;101356.22;5124272;28;20185;-27
2022/05/03 01:40:49;;;;;;;0.10;0.10;;;;;;;20.96;39.68;101355.09;5105739;27;20127;-29
2022/05/03 01:43:42;;;;;;;0.10;0.10;;;;;;;20.94;40.03;101352.63;5122723;28;20094;-27
2022/05/03 01:46:16;;;;;;;0.10;0.10;;;;;;;20.95;39.80;101361.75;5105436;28;20073;-28
2022/05/03 01:51:49;;;;;;;0.17;0.17;;;;;;;20.95;39.78;101362.59;5103921;28;20179;-27
2022/05/03 01:54:36;;;;;;;0.10;0.10;;;;;;;20.95;39.91;101356.22;5123826;28;20079;-28
2022/05/03 01:57:34;;;;;;;0.10;0.10;;;;;;;20.94;39.81;101363.69;5123207;28;20082;-27
2022/05/03 02:00:07;;;;;;;0.10;0.10;;;;;;;20.95;39.93;101362.59;5108975;28;20071;-27
2022/05/03 02:03:13;;;;;;;0.10;0.10;;;;;;;20.94;39.91;101366.47;5120003;28;20070;-27
2022/05/03 02:06:06;;;;;;;0.10;0.10;;;;;;;20.94;39.95;101360.94;5111648;28;20082;-28
2022/05/03 02:09:00;;;;;;;0.20;0.20;;;;;;;20.94;39.83;101357.31;5101894;28;20063;-27
2022/05/03 02:11:38;;;;;;;0.10;0.10;;;;;;;20.93;39.86;101352.88;5108680;28;20147;-27
2022/05/03 02:16:59;;;;;;;0.17;0.17;;;;;;;20.94;39.72;101369.25;5117907;28;20047;-27
2022/05/03 02:19:48;;;;;;;0.17;0.17;;;;;;;20.93;39.96;101361.19;5122566;27;20051;-27
2022/05/03 02:22:31;;;;;;;0.10;0.10;;;;;;;20.93;39.80;101364.78;5109628;28;20538;-27
2022/05/03 02:25:37;;;;;;;0.10;0.10;;;;;;;20.93;40.00;101353.72;5125759;28;20174;-29
2022/05/03 02:28:05;;;;;;;0.20;0.20;;;;;;;20.94;39.85;101347.09;5114961;28;20035;-28
2022/05/03 02:30:33;;;;;;;0.10;0.10;;;;;;;20.93;39.84;101350.94;5125088;27;20119;-27
2022/05/03 02:33:05;;;;;;;0.10;0.10;;;;;;;20.93;40.03;101355.66;5127136;28;20130;-29
2022/05/03 02:35:33;;;;;;;0.20;0.20;;;;;;;20.93;39.94;101350.94;5125069;28;20146;-28
2022/05/03 02:38:01;;;;;;;;;;;;;;;20.94;39.81;101344.31;5127940;28;20097;-28
2022/05/03 02:40:28;;;;;;;0.10;0.10;;;;;;;20.92;39.86;101340.16;5121476;28;20017;-28
2022/05/03 02:42:55;;;;;;;0.10;0.10;;;;;;;20.92;39.89;101338.22;5121560;28;20075;-28
2022/05/03 02:45:21;;;;;;;0.10;0.10;;;;;;;20.93;39.88;101347.34;5122904;28;20553;-27
2022/05/03 02:48:14;;;;;;;0.17;0.17;;;;;;;20.93;39.79;101342.63;5125122;28;20080;-28
2022/05/03 02:50:53;;;;;;;0.10;0.10;;;;;;;20.93;39.84;101345.41;5111971;28;20457;-26
2022/05/03 02:53:40;;;;;;;0.10;0.10;;;;;;;20.93;39.97;101347.34;5108723;28;20078;-26
2022/05/03 02:56:16;;;;;;;0.10;0.10;;;;;;;20.92;40.10;101346.53;5124923;28;20071;-28
2022/05/03 02:58:58;;;;;;;0.10;0.10;;;;;;;20.93;39.98;101355.66;5125573;28;20046;-30
2022/05/03 03:01:50;;;;;;;0.20;0.20;;;;;;;20.93;39.93;101348.19;5128116;28;20074;-27
2022/05/03 03:04:41;;;;;;;0.20;0.20;;;;;;;20.93;40.02;101345.41;5104286;28;20538;-27
2022/05/03 03:07:07;;;;;;;0.17;0.17;;;;;;;20.92;40.00;101342.94;5105777;28;20130;-27
2022/05/03 03:09:41;;;;;;;0.10;0.10;;;;;;;20.92;40.05;101345.69;5104423;28;20473;-27
2022/05/03 03:12:39;;;;;;;0.10;0.10;;;;;;;20.92;39.99;101343.75;5110115;28;20482;-27
2022/05/03 03:15:07;;;;;;;0.10;0.10;;;;;;;20.92;39.99;101348.47;5111931;28;20526;-28
2022/05/03 03:17:38;;;;;;;0.10;0.10;;;;;;;20.92;39.86;101337.41;5109590;28;20039;-28
2022/05/03 03:20:06;;;;;;;0.10;0.10;;;;;;;20.92;39.87;101341.00;5124146;28;20048;-28
2022/05/03 03:22:44;;;;;;;0.10;0.10;;;;;;;20.92;39.94;101342.94;5126805;28;20077;-28
2022/05/03 03:25:12;;;;;;;0.10;0.10;;;;;;;20.92;39.78;101342.94;5103401;28;20103;-27
2022/05/03 03:27:38;;;;;;;0.10;0.10;;;;;;;20.92;40.03;101342.94;5126196;28;20070;-28
2022/05/03 03:30:06;;;;;;;0.10;0.10;;;;;;;20.92;39.83;101349.28;5119742;27;20189;-28
2022/05/03 03:32:33;;;;;;;0.10;0.10;;;;;;;20.92;39.85;101351.25;5123045;27;20039;-26
2022/05/03 03:34:59;;;;;;;0.10;0.10;;;;;;;20.92;40.19;101345.69;5124067;28;20439;-27
2022/05/03 03:37:28;;;;;;;0.10;0.10;;;;;;;20.91;39.87;101347.66;5123921;28;20543;-27
2022/05/03 03:39:54;;;;;;;0.10;0.10;;;;;;;20.91;40.04;101350.41;5122821;28;20126;-28
2022/05/03 03:42:19;;;;;;;0.10;0.10;;;;;;;20.91;39.96;101347.66;5128225;27;20058;-27
2022/05/03 03:44:46;;;;;;;0.10;0.10;;;;;;;20.90;39.87;101346.00;5121404;28;20040;-31
2022/05/03 03:47:11;;;;;;;0.10;0.10;;;;;;;20.91;39.75;101342.09;5123845;28;20486;-28
2022/05/03 03:49:38;;;;;;;0.10;0.10;;;;;;;20.91;39.83;101339.34;5120236;28;20039;-28
2022/05/03 03:52:04;;;;;;;0.10;0.10;;;;;;;20.91;39.80;101347.66;5121406;28;20407;-28
2022/05/03 03:54:30;;;;;;;0.10;0.10;;;;;;;20.91;40.07;101349.59;5125077;28;20049;-28
2022/05/03 03:56:56;;;;;;;0.10;0.10;;;;;;;20.92;39.82;101345.69;5124071;28;20151;-30
2022/05/03 03:59:22;;;;;;;0.35;0.35;;;;;;;20.91;40.03;101347.66;5126465;28;20134;-28
2022/05/03 04:01:49;;;;;;;0.10;0.10;;;;;;;20.91;40.13;101350.41;5126221;28;20045;-27
2022/05/03 04:04:18;;;;;;;0.10;0.10;;;;;;;20.91;39.88;101353.19;5101929;28;20052;-28
2022/05/03 04:06:44;;;;;;;0.10;0.10;;;;;;;20.90;40.13;101346.00;5124459;28;20067;-27
2022/05/03 04:09:09;;;;;;;0.10;0.10;;;;;;;20.91;39.94;101355.94;5117779;28;20062;-27
2022/05/03 04:11:44;;;;;;;0.10;0.10;;;;;;;20.91;40.00;101352.34;5122576;28;20063;-29
2022/05/03 04:14:11;;;;;;;0.10;0.10;;;;;;;20.91;40.06;101366.19;5124872;28;20051;-30
2022/05/03 04:16:36;;;;;;;0.10;0.10;;;;;;;20.91;39.96;101367.03;5124914;28;20105;-33
2022/05/03 04:19:02;;;;;;;0.15;0.15;;;;;;;20.91;40.05;101369.78;5122809;28;20561;-31
2022/05/03 04:21:28;;;;;;;0.10;0.10;;;;;;;20.91;39.87;101363.44;5123991;28;20597;-30
2022/05/03 04:23:53;;;;;;;0.10;0.10;;;;;;;20.91;39.95;101357.88;5125008;28;20417;-31
2022/05/03 04:26:19;;;;;;;0.10;0.10;;;;;;;20.90;40.07;101365.38;5123071;28;20071;-29
2022/05/03 04:28:45;;;;;;;0.20;0.20;;;;;;;20.91;39.95;101368.97;5116837;27;20122;-29
2022/05/03 04:31:10;;;;;;;0.10;0.10;;;;;;;20.91;39.98;101371.72;5120643;27;20123;-29
2022/05/03 04:33:36;;;;;;;0.10;0.10;;;;;;;20.90;39.90;101365.38;5124964;28;20043;-27
2022/05/03 04:36:02;;;;;;;0.13;0.13;;;;;;;20.90;39.89;101375.63;5123518;28;20061;-28
2022/05/03 04:38:28;;;;;;;0.10;0.10;;;;;;;20.90;39.95;101370.91;5125075;28;20390;-29
2022/05/03 04:40:58;;;;;;;0.10;0.10;;;;;;;20.91;40.03;101375.31;5122412;28;20053;-31
2022/05/03 04:43:24;;;;;;;0.10;0.10;;;;;;;20.90;39.81;101376.44;5105529;28;20079;-32
2022/05/03 04:45:51;;;;;;;0.10;0.10;;;;;;;20.90;39.87;101375.63;5121789;28;20435;-32
2022/05/03 04:48:16;;;;;;;0.15;0.15;;;;;;;20.90;40.05;101379.22;5117953;28;20082;-31
2022/05/03 04:50:42;;;;;;;0.10;0.10;;;;;;;20.92;39.81;101381.69;5122839;28;20071;-28
2022/05/03 04:53:08;;;;;;;0.20;0.20;;;;;;;20.91;39.96;101382.81;5125045;28;20064;-29
2022/05/03 04:55:37;;;;;;;0.20;0.20;;;;;;;20.90;40.06;101383.94;5124293;28;20104;-30
2022/05/03 04:58:03;;;;;;;0.13;0.13;;;;;;;20.89;39.89;101385.84;5123079;28;21610;-31
2022/05/03 05:00:30;;;;;;;0.10;0.10;;;;;;;20.90;40.01;101392.22;5122657;28;20042;-29
2022/05/03 05:02:56;;;;;;;0.20;0.20;;;;;;;20.90;39.97;101390.28;5124604;28;20602;-29
2022/05/03 05:05:22;;;;;;;0.13;0.13;;;;;;;20.89;39.87;101388.59;5123672;28;20478;-29
2022/05/03 05:07:47;;;;;;;0.10;0.10;;;;;;;20.90;39.75;101395.00;5123626;28;20043;-29
2022/05/03 05:10:28;;;;;;;0.10;0.10;;;;;;;20.78;40.54;101401.66;5119124;28;20451;-48
2022/05/03 05:12:54;;;;;;;0.10;0.10;;;;;;;20.50;40.58;101405.00;5118819;28;20216;-30
2022/05/03 05:15:25;;;;;;;0.20;0.20;;;;;;;20.73;40.73;101403.63;5122436;28;20141;-31
2022/05/03 05:17:52;;;;;;;0.10;0.10;;;;;;;20.85;40.52;101395.00;5102419;28;20087;-29
2022/05/03 05:20:19;;;;;;;0.13;0.13;;;;;;;20.89;40.49;101401.63;5121904;28;20319;-30
2022/05/03 05:22:45;;;;;;;0.10;0.10;;;;;;;20.91;40.30;101391.94;5125252;28;20495;-31
2022/05/03 05:25:31;;;;;;;0.17;0.17;;;;;;;20.94;40.20;101402.47;5109120;28;20512;-31
2022/05/03 05:27:57;;;;;;;0.20;0.20;;;;;;;20.96;40.30;101404.94;5125087;28;20043;-31
2022/05/03 05:30:23;;;;;;;0.10;0.10;;;;;;;20.97;40.17;101406.59;5119823;27;20953;-32
2022/05/03 05:32:48;;;;;;;0.10;0.10;;;;;;;20.98;39.87;101408.25;5118420;28;20252;-31
2022/05/03 05:35:14;;;;;;;0.10;0.10;;;;;;;20.99;39.86;101405.22;5122699;28;20055;-30
2022/05/03 05:37:44;;;;;;;0.10;0.10;;;;;;;20.99;40.14;101410.75;5123290;28;20096;-32
2022/05/03 05:40:10;;;;;;;0.20;0.20;;;;;;;21.01;39.88;101411.28;5115357;28;20043;-30
2022/05/03 05:42:36;;;;;;;0.10;0.10;;;;;;;21.01;40.06;101416.00;5118841;28;20572;-30
2022/05/03 05:45:04;;;;;;;0.10;0.10;;;;;;;21.02;39.92;101409.34;5120841;28;20115;-31
2022/05/03 05:47:30;;;;;;;0.10;0.10;;;;;;;21.04;39.94;101412.66;5121268;28;20067;-32
2022/05/03 05:49:56;;;;;;;0.10;0.10;;;;;;;21.05;39.96;101425.41;5123324;28;20047;-30
2022/05/03 05:55:08;;;;;;;0.10;0.10;;;;;;;21.07;39.83;101414.88;5116127;27;20134;-31
2022/05/03 05:57:34;;;;;;;0.10;0.10;;;;;;;21.08;39.71;101427.63;5123118;28;20554;-29
2022/05/03 06:00:00;;;;;;;0.17;0.17;;;;;;;21.08;39.91;101421.25;5122947;28;20380;-32
2022/05/03 06:02:26;;;;;;;0.10;0.10;;;;;;;21.10;39.79;101422.59;5122201;28;20130;-32
2022/05/03 06:04:51;;;;;;;0.10;0.10;;;;;;;21.10;39.52;101422.59;5124616;28;20158;-31
2022/05/03 06:07:20;;;;;;;0.10;0.10;;;;;;;21.11;39.69;101413.19;5118463;28;20622;-30
2022/05/03 06:09:46;;;;;;;0.10;0.10;;;;;;;21.13;39.50;101421.22;5119998;28;20059;-30
2022/05/03 06:12:12;;;;;;;0.10;0.10;;;;;;;21.14;39.60;101422.88;5117987;28;20036;-35
2022/05/03 06:14:38;;;;;;;0.17;0.17;;;;;;;21.14;39.18;101423.69;5122186;28;20065;-31
2022/05/03 06:17:03;;;;;;;0.10;0.10;;;;;;;21.15;39.28;101424.53;5116103;27;20047;-30
2022/05/03 06:19:29;;;;;;;0.10;0.10;;;;;;;21.16;39.53;101427.03;5100698;28;20100;-33
2022/05/03 06:21:55;;;;;;;0.10;0.10;;;;;;;21.16;39.40;101435.34;5121862;27;20054;-33
2022/05/03 06:24:21;;;;;;;0.20;0.20;;;;;;;21.17;39.63;101427.88;5121745;28;20496;-30
2022/05/03 06:26:47;;;;;;;0.10;0.10;;;;;;;21.17;39.31;101428.69;5120999;28;20047;-34
2022/05/03 06:29:12;;;;;;;0.10;0.10;;;;;;;21.17;39.62;101430.63;5123869;27;20054;-32
2022/05/03 06:31:39;;;;;;;0.15;0.15;;;;;;;21.18;39.52;101435.06;5120108;28;20440;-32
2022/05/03 06:34:05;;;;;;;0.10;0.10;;;;;;;21.18;39.49;101430.34;5121037;28;20082;-30
2022/05/03 06:36:32;;;;;;;0.10;0.10;;;;;;;21.17;39.50;101437.00;5118311;27;20059;-33
2022/05/03 06:38:59;;;;;;;0.20;0.20;;;;;;;21.17;39.30;101437.00;5104231;28;21174;-30
2022/05/03 06:41:24;;;;;;;0.10;0.10;;;;;;;21.17;39.29;101439.78;5121609;28;20147;-33
2022/05/03 06:43:50;;;;;;;0.10;0.10;;;;;;;21.17;39.52;101437.00;5126266;28;20384;-32
2022/05/03 06:46:16;;;;;;;0.10;0.10;;;;;;;21.17;39.42;101439.78;5121501;28;20043;-34
2022/05/03 06:48:42;;;;;;;0.10;0.10;;;;;;;21.17;39.29;101433.41;5122244;28;20039;-35
2022/05/03 06:51:08;;;;;;;0.10;0.10;;;;;;;21.17;39.40;101438.94;5121028;28;20187;-30
2022/05/03 06:53:34;;;;;;;0.10;0.10;;;;;;;21.17;39.19;101448.06;5120452;28;20097;-31
2022/05/03 06:55:59;;;;;;;0.13;0.13;;;;;;;21.17;39.42;101450.03;5123845;28;20675;-32
2022/05/03 06:58:25;;;;;;;0.10;0.10;;;;;;;21.18;39.15;101451.66;5119970;28;20107;-35
2022/05/03 07:00:51;;;;;;;0.10;0.10;;;;;;;21.16;39.28;101445.59;5098965;28;20126;-32
2022/05/03 07:03:17;;;;;;;0.10;0.10;;;;;;;21.17;39.31;101444.47;5117898;28;20184;-30
2022/05/03 07:05:43;;;;;;;0.17;0.17;;;;;;;21.16;39.21;101460.28;5116137;27;20324;-31
2022/05/03 07:08:10;;;;;;;0.10;0.10;;;;;;;21.16;39.17;101451.97;5119294;28;20036;-31
2022/05/03 07:10:37;;;;;;;0.10;0.10;;;;;;;21.15;39.17;101447.50;5120239;28;20101;-30
2022/05/03 07:13:03;;;;;;;0.10;0.10;;;;;;;21.16;39.18;101454.72;5121443;28;20066;-30
2022/05/03 07:15:30;;;;;;;0.20;0.20;;;;;;;21.16;39.18;101454.72;5119572;28;20139;-31
2022/05/03 07:23:27;;;;;;;0.10;0.10;;;;;;;21.15;39.29;101466.06;5107895;28;20079;-31
2022/05/03 07:25:53;;;;;;;0.10;0.10;;;;;;;21.14;39.24;101461.66;5123335;28;20058;-31
2022/05/03 07:28:19;;;;;;;0.10;0.10;;;;;;;21.15;39.35;101466.91;5124390;27;20058;-30
2022/05/03 07:30:46;;;;;;;0.10;0.10;;;;;;;21.14;39.18;101468.00;5119240;28;20509;-32
2022/05/03 07:33:11;;;;;;;0.10;0.10;;;;;;;21.13;39.18;101471.91;5102367;28;20289;-30
2022/05/03 07:35:37;;;;;;;0.10;0.10;;;;;;;21.14;39.09;101469.97;5123501;28;20127;-31
2022/05/03 07:38:03;;;;;;;0.10;0.10;;;;;;;21.13;39.19;101469.13;5120418;28;20412;-30
2022/05/03 07:40:28;;;;;;;0.10;0.10;;;;;;;21.14;39.24;101472.72;5115364;27;20185;-30
2022/05/03 07:42:54;;;;;;;0.10;0.10;;;;;;;21.13;39.11;101460.81;5121151;28;20047;-30
2022/05/03 07:45:20;;;;;;;0.10;0.10;;;;;;;21.13;39.18;101466.38;5118601;28;20127;-30
2022/05/03 07:47:45;;;;;;;0.10;0.10;;;;;;;21.12;39.25;101464.72;5121364;28;20636;-32
2022/05/03 07:50:11;;;;;;;0.10;0.10;;;;;;;21.13;39.01;101466.38;5117873;28;20051;-31
2022/05/03 07:52:37;;;;;;;0.10;0.10;;;;;;;21.13;39.10;101463.59;5122329;28;20498;-34
2022/05/03 07:55:06;;;;;;;0.10;0.10;;;;;;;21.16;38.51;101465.00;5122881;28;20078;-30
2022/05/03 07:57:31;;;;;;;;;;;;;;;21.17;38.37;101459.16;5102686;28;20356;-31
2022/05/03 07:59:57;;;;;;;0.10;0.10;;;;;;;21.15;38.47;101466.06;5118505;28;20277;-33
2022/05/03 08:02:24;;;;;;;0.10;0.10;;;;;;;21.15;38.66;101457.75;5121831;28;20054;-31
2022/05/03 08:04:51;;;;;;;0.10;0.10;;;;;;;21.16;38.84;101462.22;5119865;28;20051;-30
2022/05/03 08:07:17;;;;;;;0.17;0.17;;;;;;;21.16;38.76;101459.44;5123675;28;20138;-32
2022/05/03 08:09:43;;;;;;;0.20;0.20;;;;;;;21.16;38.67;101470.53;5111097;27;20134;-30
2022/05/03 08:12:09;;;;;;;0.10;0.10;;;;;;;21.17;38.64;101466.63;5117230;28;20500;-30
2022/05/03 08:14:36;;;;;;;0.10;0.10;;;;;;;21.18;38.84;101473.81;5113463;27;20166;-31
2022/05/03 08:17:02;;;;;;;0.10;0.10;;;;;;;21.18;38.70;101471.06;5116379;27;20165;-30
2022/05/03 08:19:28;;;;;;;0.20;0.20;;;;;;;21.19;38.63;101469.94;5114318;27;20047;-30
2022/05/03 08:21:56;;;;;;;0.10;0.10;;;;;;;21.19;38.98;101478.25;5117689;28;20086;-31
2022/05/03 08:24:23;;;;;;;0.10;0.10;;;;;;;21.21;38.88;101476.03;5120302;28;20493;-31
2022/05/03 08:26:49;;;;;;;0.10;0.10;;;;;;;21.22;38.72;101486.84;5116618;27;20190;-30
2022/05/03 08:29:15;;;;;;;0.10;0.10;;;;;;;21.22;38.62;101484.06;5099501;28;20047;-32
2022/05/03 08:31:41;;;;;;;0.10;0.10;;;;;;;21.22;38.69;101486.84;5117207;28;20075;-32
2022/05/03 08:34:08;;;;;;;0.10;0.10;;;;;;;21.23;38.78;101482.13;5113695;28;20401;-31
2022/05/03 08:36:33;;;;;;;0.20;0.20;;;;;;;21.24;38.70;101478.22;5096516;28;20047;-33
2022/05/03 08:42:17;;;;;;;0.10;0.10;;;;;;;21.25;38.54;101491.00;5103647;28;20427;-31
2022/05/03 08:44:33;;;;;;;0.10;0.10;;;;;;;21.26;38.76;101492.66;5097965;28;20452;-32
2022/05/03 08:46:59;;;;;;;0.15;0.15;;;;;;;21.26;38.57;101485.16;5096333;28;20128;-31
2022/05/03 08:49:32;;;;;;;0.10;0.10;;;;;;;21.27;38.61;101486.00;5112843;28;20590;-31
2022/05/03 08:52:00;;;;;;;0.15;0.15;;;;;;;21.27;38.71;101484.03;5108709;27;20126;-33
2022/05/03 08:54:26;;;;;;;0.10;0.10;;;;;;;21.29;38.57;101483.78;5109394;28;20078;-30
2022/05/03 08:56:52;;;;;;;0.20;0.20;;;;;;;21.29;38.71;101490.16;5111611;28;20092;-30
2022/05/03 08:59:18;;;;;;;0.20;0.20;;;;;;;21.29;38.34;101487.38;5108725;28;20047;-30
2022/05/03 09:01:43;;;;;;;0.10;0.10;;;;;;;21.30;38.53;101486.25;5116037;28;20095;-34
2022/05/03 09:04:10;;;;;;;0.10;0.10;;;;;;;21.30;38.58;101491.81;5115133;27;20082;-31
2022/05/03 09:06:50;;;;;;;0.10;0.10;;;;;;;21.05;34.98;101489.09;5095774;28;20516;-32
2022/05/03 09:09:20;;;;;;;0.10;0.10;;;;;;;21.24;37.19;101494.84;5115272;28;20049;-31
2022/05/03 09:11:47;;;;;;;0.10;0.10;;;;;;;21.31;37.52;101500.94;5106118;28;20514;-30
2022/05/03 09:14:34;;;;;;;0.10;0.10;;;;;;;21.32;37.79;101499.03;5117200;28;20210;-30
2022/05/03 09:17:00;;;;;;;0.10;0.10;;;;;;;21.32;37.71;101488.78;5114203;28;20075;-31
2022/05/03 09:19:26;;;;;;;0.10;0.10;;;;;;;21.33;37.76;101495.13;5112929;28;20055;-31
2022/05/03 09:24:59;;;;;;;0.10;0.10;;;;;;;21.34;37.82;101496.81;5089206;28;20046;-31
2022/05/03 09:27:26;;;;;;;0.10;0.10;;;;;;;21.35;37.95;101496.53;5113931;27;21473;-30
2022/05/03 09:30:01;;;;;;;0.10;0.10;;;;;;;21.35;37.75;101493.75;5110280;28;20043;-30
2022/05/03 09:32:38;;;;;;;0.10;0.10;;;;;;;21.37;37.81;101487.91;5115427;28;20122;-33
2022/05/03 09:35:05;;;;;;;0.10;0.10;;;;;;;21.36;38.01;101492.63;5115256;28;20086;-30
2022/05/03 09:37:39;;;;;;;0.10;0.10;;;;;;;21.37;37.94;101488.75;5095495;28;20500;-31
2022/05/03 09:40:05;;;;;;;0.10;0.10;;;;;;;21.26;36.60;101493.47;5112047;28;20105;-31
2022/05/03 09:42:34;;;;;;;0.10;0.10;;;;;;;21.38;36.99;101484.06;5108745;27;20170;-30
2022/05/03 09:45:02;;;;;;;0.10;0.10;;;;;;;21.43;37.41;101487.63;5097520;28;20078;-32
2022/05/03 09:47:30;;;;;;;0.20;0.20;;;;;;;21.41;37.24;101494.56;5112119;27;20507;-31
2022/05/03 09:49:56;;;;;;;0.10;0.10;;;;;;;21.42;37.31;101488.75;5114079;28;20071;-31
2022/05/03 09:52:27;;;;;;;0.10;0.10;;;;;;;21.43;37.80;101484.03;5115632;27;20039;-30
2022/05/03 09:54:59;;;;;;;0.10;0.10;;;;;;;21.45;37.54;101481.81;5117667;28;20135;-35
2022/05/03 09:57:26;;;;;;;0.10;0.10;;;;;;;21.45;37.41;101490.13;5094354;28;20075;-30
2022/05/03 09:59:55;;;;;;;0.10;0.10;;;;;;;21.45;37.59;101482.63;5118367;28;20043;-28
2022/05/03 10:02:22;;;;;;;0.10;0.10;;;;;;;21.47;37.53;101485.13;5102162;27;20123;-31
2022/05/03 10:04:50;;;;;;;0.10;0.10;;;;;;;21.47;37.64;101479.59;5118323;27;20062;-29
2022/05/03 10:07:16;;;;;;;0.10;0.10;;;;;;;21.47;37.51;101474.06;5120073;27;20543;-35
2022/05/03 10:09:44;;;;;;;0.10;0.10;;;;;;;21.48;37.70;101476.53;5101384;28;20048;-31
2022/05/03 10:12:11;;;;;;;0.10;0.10;;;;;;;21.49;37.63;101474.59;5119381;27;21351;-31
2022/05/03 10:14:38;;;;;;;0.10;0.10;;;;;;;21.51;37.55;101472.38;5094835;28;20500;-30
2022/05/03 10:25:56;;;;;;;0.10;0.10;;;;;;;21.58;37.65;101464.56;5107349;27;20521;-31
2022/05/03 10:28:23;;;;;;;0.10;0.10;;;;;;;21.59;37.40;101471.78;5096149;28;20114;-30
2022/05/03 10:31:08;;;;;;;0.15;0.15;;;;;;;21.59;37.57;101470.94;5095603;28;20172;-30
2022/05/03 10:36:33;;;;;;;0.10;0.10;;;;;;;21.51;36.45;101466.84;5167318;27;20204;-29
2022/05/03 10:39:05;;;;;;;0.10;0.10;;;;;;;21.58;37.11;101463.72;5138880;27;20833;-30
2022/05/03 10:41:31;;;;;;;0.10;0.10;;;;;;;21.62;37.17;101462.06;5155658;27;20042;-31
2022/05/03 10:43:56;;;;;;;0.10;0.10;;;;;;;21.61;37.26;101461.22;5134591;27;20127;-36
2022/05/03 10:46:23;;;;;;;0.10;0.10;;;;;;;21.62;37.34;101453.75;5154711;27;20039;-29
2022/05/03 10:51:41;;;;;;;0.10;0.10;;;;;;;21.66;37.18;101457.59;5153099;27;20205;-28
2022/05/03 10:54:07;;;;;;;0.10;0.10;;;;;;;21.65;37.05;101453.19;5136229;27;20130;-30
2022/05/03 10:56:33;;;;;;;0.10;0.10;;;;;;;21.66;37.22;101447.34;5138414;27;20047;-29
2022/05/03 10:59:10;;;;;;;0.10;0.10;;;;;;;21.66;37.15;101449.28;5125770;27;20479;-30
2022/05/03 11:04:31;;;;;;;0.10;0.10;;;;;;;21.72;36.89;101456.47;5149030;27;20467;-32
2022/05/03 11:06:57;;;;;;;0.10;0.10;;;;;;;21.70;37.16;101445.66;5157914;27;20280;-34
2022/05/03 11:09:28;;;;;;;0.10;0.10;;;;;;;21.70;37.12;101450.38;5152163;27;20071;-30
2022/05/03 11:11:55;;;;;;;0.10;0.10;;;;;;;21.71;37.17;101441.75;5129742;27;20133;-31
2022/05/03 11:17:12;;;;;;;0.10;0.10;;;;;;;21.70;37.36;101429.03;5144664;27;20254;-31
2022/05/03 11:19:52;;;;;;;0.10;0.10;;;;;;;21.71;37.09;101438.16;5122784;27;20490;-31
2022/05/03 11:22:23;;;;;;;0.10;0.10;;;;;;;21.72;37.15;101434.31;5110791;27;20047;-31
2022/05/03 11:24:51;;;;;;;0.10;0.10;;;;;;;21.72;37.10;101439.84;5110899;27;20077;-33
2022/05/03 11:27:17;;;;;;;0.10;0.10;;;;;;;21.71;37.11;101427.91;5126154;27;20173;-32
2022/05/03 11:29:46;;;;;;;0.10;0.10;;;;;;;21.73;37.27;101427.63;5122140;27;20431;-35
2022/05/03 11:32:14;;;;;;;0.17;0.17;;;;;;;21.71;37.18;101425.13;5123729;27;20285;-32
2022/05/03 11:34:40;;;;;;;0.10;0.10;;;;;;;21.19;33.63;101422.84;5127021;27;20473;-31
2022/05/03 11:37:07;;;;;;;0.10;0.10;;;;;;;21.50;35.36;101426.34;5122604;27;20047;-31
2022/05/03 11:39:36;;;;;;;0.10;0.10;;;;;;;21.65;35.31;101411.59;5124765;27;20146;-29
2022/05/03 11:42:05;;;;;;;0.10;0.10;;;;;;;21.69;35.80;101418.22;5125745;27;20134;-32
2022/05/03 11:44:30;;;;;;;0.10;0.10;;;;;;;21.71;35.90;101408.50;5129056;27;20138;-29
2022/05/03 11:47:00;;;;;;;0.15;0.15;;;;;;;21.74;35.96;101412.66;5130043;27;20069;-30
2022/05/03 11:49:26;;;;;;;0.10;0.10;;;;;;;21.75;36.16;101411.53;5107579;27;20047;-30
2022/05/03 11:57:31;;;;;;;0.10;0.10;;;;;;;21.76;36.21;101397.41;5102033;27;20144;-32
2022/05/03 11:59:58;;;;;;;0.10;0.10;;;;;;;21.78;36.23;101397.94;5126794;27;20199;-29
2022/05/03 12:02:33;;;;;;;0.10;0.10;;;;;;;21.79;36.25;101390.44;5106829;27;20070;-31
2022/05/03 12:07:45;;;;;;;0.10;0.10;;;;;;;21.47;34.32;101396.47;5159488;27;20128;-31
2022/05/03 12:10:30;;;;;;;;;;;;;;;21.68;34.65;101388.88;5157829;27;20057;-29
2022/05/03 12:13:24;;;;;;;0.10;0.10;;;;;;;21.75;34.89;101392.13;5142358;27;20118;-30
2022/05/03 12:16:07;;;;;;;0.10;0.10;;;;;;;21.78;35.22;101386.84;5141653;27;20054;-27
2022/05/03 12:18:35;;;;;;;0.10;0.10;;;;;;;21.80;35.41;101386.53;5149880;27;20050;-29
2022/05/03 12:21:03;;;;;;;;;;;;;;;21.82;35.49;101387.09;5133218;27;20074;-29
2022/05/03 12:23:39;;;;;;;0.10;0.10;;;;;;;21.83;35.69;101380.44;5153772;27;19927;-30
2022/05/03 12:26:27;;;;;;;0.10;0.10;;;;;;;21.29;31.31;101375.75;5149731;27;20288;-34
2022/05/03 12:28:57;;;;;;;0.10;0.10;;;;;;;21.24;31.87;101381.28;5137193;27;20054;-36
2022/05/03 12:31:30;;;;;;;0.10;0.10;;;;;;;21.01;31.61;101372.50;5136688;27;20322;-46